sensor_id;sensor_type;location;lat;lon;timestamp;pressure;altitude;pressure_sealevel;temperature;humidity
11712;BME280;5912;51.034;6.984;2023-03-17T00:00:42;56462.50;;;-142.13;41.38
11712;BME280;5912;51.034;6.984;2023-03-17T00:03:15;56434.44;;;-142.13;41.47
11712;BME280;5912;51.034;6.984;2023-03-17T00:05:42;56462.50;;;-142.13;41.31
11712;BME280;5912;51.034;6.984;2023-03-17T00:08:22;56480.53;;;-142.13;41.34
11712;BME280;5912;51.034;6.984;2023-03-17T00:10:49;56490.53;;;-142.13;41.25
11712;BME280;5912;51.034;6.984;2023-03-17T00:13:15;56472.50;;;-142.13;41.34
11712;BME280;5912;51.034;6.984;2023-03-17T00:15:41;56468.50;;;-142.13;41.42
11712;BME280;5912;51.034;6.984;2023-03-17T00:18:15;56468.50;;;-142.13;41.46
11712;BME280;5912;51.034;6.984;2023-03-17T00:20:41;56500.56;;;-142.13;41.32
11712;BME280;5912;51.034;6.984;2023-03-17T00:23:12;56470.50;;;-142.13;41.68
11712;BME280;5912;51.034;6.984;2023-03-17T00:25:39;56496.56;;;-142.13;41.56
11712;BME280;5912;51.034;6.984;2023-03-17T00:28:14;56502.56;;;-142.13;41.36
11712;BME280;5912;51.034;6.984;2023-03-17T00:30:40;56472.50;;;-142.13;41.25
11712;BME280;5912;51.034;6.984;2023-03-17T00:33:05;56488.53;;;-142.13;41.22
11712;BME280;5912;51.034;6.984;2023-03-17T00:35:31;56486.53;;;-142.13;41.25
11712;BME280;5912;51.034;6.984;2023-03-17T00:37:57;56478.53;;;-142.13;41.73
11712;BME280;5912;51.034;6.984;2023-03-17T00:40:25;56438.47;;;-142.13;41.54
11712;BME280;5912;51.034;6.984;2023-03-17T00:42:53;56500.56;;;-142.13;41.71
11712;BME280;5912;51.034;6.984;2023-03-17T00:45:19;56488.53;;;-142.13;41.58
11712;BME280;5912;51.034;6.984;2023-03-17T00:47:47;56486.53;;;-142.13;41.99
11712;BME280;5912;51.034;6.984;2023-03-17T00:50:16;56468.50;;;-142.13;42.23
11712;BME280;5912;51.034;6.984;2023-03-17T00:52:43;56484.53;;;-142.13;41.97
11712;BME280;5912;51.034;6.984;2023-03-17T00:55:10;56472.50;;;-142.13;42.02
11712;BME280;5912;51.034;6.984;2023-03-17T00:57:37;56484.53;;;-142.13;42.30
11712;BME280;5912;51.034;6.984;2023-03-17T01:00:06;56494.56;;;-142.13;41.61
11712;BME280;5912;51.034;6.984;2023-03-17T01:02:32;56492.53;;;-142.13;41.84
11712;BME280;5912;51.034;6.984;2023-03-17T01:04:58;56490.53;;;-142.13;42.02
11712;BME280;5912;51.034;6.984;2023-03-17T01:07:25;56484.53;;;-142.13;42.19
11712;BME280;5912;51.034;6.984;2023-03-17T01:09:51;56482.53;;;-142.13;41.93
11712;BME280;5912;51.034;6.984;2023-03-17T01:12:16;56482.53;;;-142.13;41.92
11712;BME280;5912;51.034;6.984;2023-03-17T01:14:42;56508.56;;;-142.13;42.02
11712;BME280;5912;51.034;6.984;2023-03-17T01:17:15;56486.53;;;-142.13;42.09
11712;BME280;5912;51.034;6.984;2023-03-17T01:19:42;56500.56;;;-142.13;41.78
11712;BME280;5912;51.034;6.984;2023-03-17T01:22:09;56494.56;;;-142.13;42.01
11712;BME280;5912;51.034;6.984;2023-03-17T01:24:34;56472.50;;;-142.13;42.16
11712;BME280;5912;51.034;6.984;2023-03-17T01:27:00;56492.53;;;-142.13;41.88
11712;BME280;5912;51.034;6.984;2023-03-17T01:29:27;56492.53;;;-142.13;41.78
11712;BME280;5912;51.034;6.984;2023-03-17T01:31:52;56486.53;;;-142.13;42.23
11712;BME280;5912;51.034;6.984;2023-03-17T01:34:17;56484.53;;;-142.13;42.02
11712;BME280;5912;51.034;6.984;2023-03-17T01:36:43;56468.50;;;-142.13;42.16
11712;BME280;5912;51.034;6.984;2023-03-17T01:39:09;56464.50;;;-142.13;41.74
11712;BME280;5912;51.034;6.984;2023-03-17T01:41:35;56472.50;;;-142.13;42.06
11712;BME280;5912;51.034;6.984;2023-03-17T01:44:02;56478.53;;;-142.13;41.76
11712;BME280;5912;51.034;6.984;2023-03-17T01:46:29;56496.56;;;-142.13;41.83
11712;BME280;5912;51.034;6.984;2023-03-17T01:49:15;56498.56;;;-142.13;41.75
11712;BME280;5912;51.034;6.984;2023-03-17T01:51:44;56506.56;;;-142.13;41.85
11712;BME280;5912;51.034;6.984;2023-03-17T01:54:13;56484.53;;;-142.13;42.07
11712;BME280;5912;51.034;6.984;2023-03-17T01:56:43;56486.53;;;-142.13;41.96
11712;BME280;5912;51.034;6.984;2023-03-17T01:59:14;56510.56;;;-142.13;42.15
11712;BME280;5912;51.034;6.984;2023-03-17T02:01:45;56496.56;;;-142.13;42.09
11712;BME280;5912;51.034;6.984;2023-03-17T02:04:12;56492.53;;;-142.13;41.70
11712;BME280;5912;51.034;6.984;2023-03-17T02:06:38;56466.50;;;-142.13;41.60
11712;BME280;5912;51.034;6.984;2023-03-17T02:09:04;56508.56;;;-142.13;42.21
11712;BME280;5912;51.034;6.984;2023-03-17T02:11:29;56468.50;;;-142.13;41.92
11712;BME280;5912;51.034;6.984;2023-03-17T02:13:55;56500.56;;;-142.13;42.09
11712;BME280;5912;51.034;6.984;2023-03-17T02:16:21;56458.50;;;-142.13;41.99
11712;BME280;5912;51.034;6.984;2023-03-17T02:18:47;56492.53;;;-142.13;42.16
11712;BME280;5912;51.034;6.984;2023-03-17T02:21:42;56546.63;;;-142.13;41.87
11712;BME280;5912;51.034;6.984;2023-03-17T02:24:20;56470.50;;;-142.13;42.16
11712;BME280;5912;51.034;6.984;2023-03-17T02:26:48;56482.53;;;-142.13;41.85
11712;BME280;5912;51.034;6.984;2023-03-17T02:29:15;56512.59;;;-142.13;42.01
11712;BME280;5912;51.034;6.984;2023-03-17T02:31:42;56506.56;;;-142.13;41.90
11712;BME280;5912;51.034;6.984;2023-03-17T02:34:08;56486.53;;;-142.13;41.97
11712;BME280;5912;51.034;6.984;2023-03-17T02:36:33;56494.56;;;-142.13;42.18
11712;BME280;5912;51.034;6.984;2023-03-17T02:38:59;56490.53;;;-142.13;42.04
11712;BME280;5912;51.034;6.984;2023-03-17T02:41:25;56496.56;;;-142.13;42.28
11712;BME280;5912;51.034;6.984;2023-03-17T02:43:51;56462.50;;;-142.13;42.17
11712;BME280;5912;51.034;6.984;2023-03-17T02:46:17;56474.53;;;-142.13;41.92
11712;BME280;5912;51.034;6.984;2023-03-17T02:48:44;56486.53;;;-142.13;41.94
11712;BME280;5912;51.034;6.984;2023-03-17T02:51:11;56494.56;;;-142.13;41.95
11712;BME280;5912;51.034;6.984;2023-03-17T02:53:36;56518.59;;;-142.13;42.19
11712;BME280;5912;51.034;6.984;2023-03-17T02:56:02;56484.53;;;-142.13;42.77
11712;BME280;5912;51.034;6.984;2023-03-17T02:58:28;56490.53;;;-142.13;42.14
11712;BME280;5912;51.034;6.984;2023-03-17T03:00:53;56478.53;;;-142.13;42.68
11712;BME280;5912;51.034;6.984;2023-03-17T03:03:18;56496.56;;;-142.13;42.73
11712;BME280;5912;51.034;6.984;2023-03-17T03:05:44;56482.53;;;-142.13;42.42
11712;BME280;5912;51.034;6.984;2023-03-17T03:08:09;56500.56;;;-142.13;42.63
11712;BME280;5912;51.034;6.984;2023-03-17T03:10:35;56496.56;;;-142.13;42.16
11712;BME280;5912;51.034;6.984;2023-03-17T03:13:00;56530.59;;;-142.13;42.48
11712;BME280;5912;51.034;6.984;2023-03-17T03:15:25;56480.53;;;-142.13;42.35
11712;BME280;5912;51.034;6.984;2023-03-17T03:17:51;56510.56;;;-142.13;42.23
11712;BME280;5912;51.034;6.984;2023-03-17T03:20:16;56482.53;;;-142.13;42.54
11712;BME280;5912;51.034;6.984;2023-03-17T03:22:42;56492.53;;;-142.13;42.50
11712;BME280;5912;51.034;6.984;2023-03-17T03:25:08;56500.56;;;-142.13;42.73
11712;BME280;5912;51.034;6.984;2023-03-17T03:27:34;56536.63;;;-142.13;42.82
11712;BME280;5912;51.034;6.984;2023-03-17T03:29:59;56494.56;;;-142.13;42.54
11712;BME280;5912;51.034;6.984;2023-03-17T03:32:25;56510.56;;;-142.13;42.87
11712;BME280;5912;51.034;6.984;2023-03-17T03:34:50;56508.56;;;-142.13;42.83
11712;BME280;5912;51.034;6.984;2023-03-17T03:37:16;56520.59;;;-142.13;42.74
11712;BME280;5912;51.034;6.984;2023-03-17T03:39:41;56510.56;;;-142.13;42.82
11712;BME280;5912;51.034;6.984;2023-03-17T03:42:07;56528.59;;;-142.13;42.46
11712;BME280;5912;51.034;6.984;2023-03-17T03:44:32;56508.56;;;-142.13;42.38
11712;BME280;5912;51.034;6.984;2023-03-17T03:46:58;56506.56;;;-142.13;42.54
11712;BME280;5912;51.034;6.984;2023-03-17T03:49:24;56480.53;;;-142.13;42.52
11712;BME280;5912;51.034;6.984;2023-03-17T03:51:49;56506.56;;;-142.13;42.67
11712;BME280;5912;51.034;6.984;2023-03-17T03:54:15;56516.59;;;-142.13;42.74
11712;BME280;5912;51.034;6.984;2023-03-17T03:56:40;56476.53;;;-142.13;42.65
11712;BME280;5912;51.034;6.984;2023-03-17T03:59:05;56494.56;;;-142.13;42.55
11712;BME280;5912;51.034;6.984;2023-03-17T04:01:31;56518.59;;;-142.13;42.59
11712;BME280;5912;51.034;6.984;2023-03-17T04:03:56;56504.56;;;-142.13;42.56
11712;BME280;5912;51.034;6.984;2023-03-17T04:06:22;56504.56;;;-142.13;42.87
11712;BME280;5912;51.034;6.984;2023-03-17T04:08:47;56494.56;;;-142.13;42.89
11712;BME280;5912;51.034;6.984;2023-03-17T04:11:13;56500.56;;;-142.13;42.72
11712;BME280;5912;51.034;6.984;2023-03-17T04:13:38;56524.59;;;-142.13;43.09
11712;BME280;5912;51.034;6.984;2023-03-17T04:16:04;56516.59;;;-142.13;43.10
11712;BME280;5912;51.034;6.984;2023-03-17T04:18:29;56504.56;;;-142.13;43.32
11712;BME280;5912;51.034;6.984;2023-03-17T04:20:55;56488.53;;;-142.13;42.97
11712;BME280;5912;51.034;6.984;2023-03-17T04:23:21;56468.50;;;-142.13;43.13
11712;BME280;5912;51.034;6.984;2023-03-17T04:25:49;56510.56;;;-142.13;42.69
11712;BME280;5912;51.034;6.984;2023-03-17T04:28:16;56516.59;;;-142.13;42.93
11712;BME280;5912;51.034;6.984;2023-03-17T04:30:41;56498.56;;;-142.13;42.64
11712;BME280;5912;51.034;6.984;2023-03-17T04:33:07;56532.63;;;-142.13;42.69
11712;BME280;5912;51.034;6.984;2023-03-17T04:35:32;56452.47;;;-142.13;43.04
11712;BME280;5912;51.034;6.984;2023-03-17T04:37:57;56506.56;;;-142.13;43.15
11712;BME280;5912;51.034;6.984;2023-03-17T04:40:22;56524.59;;;-142.13;42.88
11712;BME280;5912;51.034;6.984;2023-03-17T04:42:48;56520.59;;;-142.13;42.78
11712;BME280;5912;51.034;6.984;2023-03-17T04:45:13;56480.53;;;-142.13;43.13
11712;BME280;5912;51.034;6.984;2023-03-17T04:47:40;56512.59;;;-142.13;43.03
11712;BME280;5912;51.034;6.984;2023-03-17T04:50:07;56516.59;;;-142.13;43.43
11712;BME280;5912;51.034;6.984;2023-03-17T04:52:33;56526.59;;;-142.13;42.94
11712;BME280;5912;51.034;6.984;2023-03-17T04:54:58;56514.59;;;-142.13;43.14
11712;BME280;5912;51.034;6.984;2023-03-17T04:57:24;56508.56;;;-142.13;43.32
11712;BME280;5912;51.034;6.984;2023-03-17T04:59:49;56500.56;;;-142.13;42.92
11712;BME280;5912;51.034;6.984;2023-03-17T05:02:15;56508.56;;;-142.13;42.87
11712;BME280;5912;51.034;6.984;2023-03-17T05:04:42;56500.56;;;-142.13;43.34
11712;BME280;5912;51.034;6.984;2023-03-17T05:07:08;56490.53;;;-142.13;43.08
11712;BME280;5912;51.034;6.984;2023-03-17T05:09:34;56506.56;;;-142.13;43.41
11712;BME280;5912;51.034;6.984;2023-03-17T05:11:59;56484.53;;;-142.13;43.46
11712;BME280;5912;51.034;6.984;2023-03-17T05:14:24;56520.59;;;-142.13;43.39
11712;BME280;5912;51.034;6.984;2023-03-17T05:16:50;56500.56;;;-142.13;43.42
11712;BME280;5912;51.034;6.984;2023-03-17T05:19:16;56512.59;;;-142.13;43.53
11712;BME280;5912;51.034;6.984;2023-03-17T05:21:42;56492.53;;;-142.13;43.47
11712;BME280;5912;51.034;6.984;2023-03-17T05:24:07;56506.56;;;-142.13;43.13
11712;BME280;5912;51.034;6.984;2023-03-17T05:26:33;56502.56;;;-142.13;43.19
11712;BME280;5912;51.034;6.984;2023-03-17T05:28:58;56500.56;;;-142.13;43.37
11712;BME280;5912;51.034;6.984;2023-03-17T05:31:24;56512.59;;;-142.13;43.32
11712;BME280;5912;51.034;6.984;2023-03-17T05:33:49;56528.59;;;-142.13;43.58
11712;BME280;5912;51.034;6.984;2023-03-17T05:36:15;56508.56;;;-142.13;43.84
11712;BME280;5912;51.034;6.984;2023-03-17T05:38:42;56512.59;;;-142.13;43.20
11712;BME280;5912;51.034;6.984;2023-03-17T05:41:08;56526.59;;;-142.13;43.61
11712;BME280;5912;51.034;6.984;2023-03-17T05:43:35;56496.56;;;-142.13;43.57
11712;BME280;5912;51.034;6.984;2023-03-17T05:46:00;56496.56;;;-142.13;43.63
11712;BME280;5912;51.034;6.984;2023-03-17T05:48:25;56516.59;;;-142.13;43.99
11712;BME280;5912;51.034;6.984;2023-03-17T05:50:51;56514.59;;;-142.13;43.65
11712;BME280;5912;51.034;6.984;2023-03-17T05:53:16;56498.56;;;-142.13;43.68
11712;BME280;5912;51.034;6.984;2023-03-17T05:55:42;56524.59;;;-142.13;43.88
11712;BME280;5912;51.034;6.984;2023-03-17T05:58:08;56532.63;;;-142.13;43.80
11712;BME280;5912;51.034;6.984;2023-03-17T06:00:34;56520.59;;;-142.13;43.30
11712;BME280;5912;51.034;6.984;2023-03-17T06:03:00;56506.56;;;-142.13;43.64
11712;BME280;5912;51.034;6.984;2023-03-17T06:05:26;56504.56;;;-142.13;43.40
11712;BME280;5912;51.034;6.984;2023-03-17T06:07:52;56502.56;;;-142.13;43.45
11712;BME280;5912;51.034;6.984;2023-03-17T06:10:17;56472.50;;;-142.13;43.39
11712;BME280;5912;51.034;6.984;2023-03-17T06:12:42;56510.56;;;-142.13;43.37
11712;BME280;5912;51.034;6.984;2023-03-17T06:15:08;56492.53;;;-142.13;43.06
11712;BME280;5912;51.034;6.984;2023-03-17T06:17:34;56480.53;;;-142.13;42.75
11712;BME280;5912;51.034;6.984;2023-03-17T06:19:59;56506.56;;;-142.13;43.11
11712;BME280;5912;51.034;6.984;2023-03-17T06:22:25;56478.53;;;-142.13;42.69
11712;BME280;5912;51.034;6.984;2023-03-17T06:24:50;56488.53;;;-142.13;42.64
11712;BME280;5912;51.034;6.984;2023-03-17T06:27:17;56460.50;;;-142.13;42.41
11712;BME280;5912;51.034;6.984;2023-03-17T06:29:42;56492.53;;;-142.13;42.25
11712;BME280;5912;51.034;6.984;2023-03-17T06:32:08;56488.53;;;-142.13;42.33
11712;BME280;5912;51.034;6.984;2023-03-17T06:34:33;56504.56;;;-142.13;42.45
11712;BME280;5912;51.034;6.984;2023-03-17T06:36:58;56486.53;;;-142.13;42.04
11712;BME280;5912;51.034;6.984;2023-03-17T06:39:24;56468.50;;;-142.13;41.92
11712;BME280;5912;51.034;6.984;2023-03-17T06:41:49;56482.53;;;-142.13;41.84
11712;BME280;5912;51.034;6.984;2023-03-17T06:44:14;56472.50;;;-142.13;41.41
11712;BME280;5912;51.034;6.984;2023-03-17T06:46:40;56478.53;;;-142.13;41.58
11712;BME280;5912;51.034;6.984;2023-03-17T06:49:05;56496.56;;;-142.13;41.25
11712;BME280;5912;51.034;6.984;2023-03-17T06:51:32;56476.53;;;-142.13;40.93
11712;BME280;5912;51.034;6.984;2023-03-17T06:53:58;56472.50;;;-142.13;41.17
11712;BME280;5912;51.034;6.984;2023-03-17T06:56:23;56468.50;;;-142.13;40.94
11712;BME280;5912;51.034;6.984;2023-03-17T06:58:49;56454.47;;;-142.13;40.51
11712;BME280;5912;51.034;6.984;2023-03-17T07:01:15;56454.47;;;-142.13;40.52
11712;BME280;5912;51.034;6.984;2023-03-17T07:03:40;56458.50;;;-142.13;40.32
11712;BME280;5912;51.034;6.984;2023-03-17T07:06:06;56436.47;;;-142.13;40.35
11712;BME280;5912;51.034;6.984;2023-03-17T07:08:33;56480.53;;;-142.13;40.56
11712;BME280;5912;51.034;6.984;2023-03-17T07:10:58;56468.50;;;-142.13;40.44
11712;BME280;5912;51.034;6.984;2023-03-17T07:13:23;56460.50;;;-142.13;40.06
11712;BME280;5912;51.034;6.984;2023-03-17T07:15:50;56446.47;;;-142.13;39.92
11712;BME280;5912;51.034;6.984;2023-03-17T07:18:15;56456.50;;;-142.13;40.16
11712;BME280;5912;51.034;6.984;2023-03-17T07:20:41;56460.50;;;-142.13;39.62
11712;BME280;5912;51.034;6.984;2023-03-17T07:23:19;56440.47;;;-142.13;39.75
11712;BME280;5912;51.034;6.984;2023-03-17T07:25:45;56456.50;;;-142.13;39.44
11712;BME280;5912;51.034;6.984;2023-03-17T07:28:11;56464.50;;;-142.13;39.47
11712;BME280;5912;51.034;6.984;2023-03-17T07:30:37;56452.47;;;-142.13;39.19
11712;BME280;5912;51.034;6.984;2023-03-17T07:33:02;56454.47;;;-142.13;38.71
11712;BME280;5912;51.034;6.984;2023-03-17T07:35:28;56416.44;;;-142.13;38.45
11712;BME280;5912;51.034;6.984;2023-03-17T07:37:55;56428.44;;;-142.13;38.15
11712;BME280;5912;51.034;6.984;2023-03-17T07:40:20;56388.38;;;-142.13;37.48
11712;BME280;5912;51.034;6.984;2023-03-17T07:42:45;56388.38;;;-142.13;37.31
11712;BME280;5912;51.034;6.984;2023-03-17T07:45:12;56388.38;;;-142.13;36.80
11712;BME280;5912;51.034;6.984;2023-03-17T07:47:37;56376.34;;;-142.13;36.24
11712;BME280;5912;51.034;6.984;2023-03-17T07:50:03;56372.34;;;-142.13;35.72
11712;BME280;5912;51.034;6.984;2023-03-17T07:52:29;56356.31;;;-142.13;36.05
11712;BME280;5912;51.034;6.984;2023-03-17T07:54:54;56348.31;;;-142.13;35.69
11712;BME280;5912;51.034;6.984;2023-03-17T07:57:20;56362.34;;;-142.13;35.91
11712;BME280;5912;51.034;6.984;2023-03-17T07:59:46;56340.31;;;-142.13;35.30
11712;BME280;5912;51.034;6.984;2023-03-17T08:02:15;56348.31;;;-142.13;35.19
11712;BME280;5912;51.034;6.984;2023-03-17T08:04:41;56354.31;;;-142.13;35.47
11712;BME280;5912;51.034;6.984;2023-03-17T08:07:07;56334.28;;;-142.13;35.15
11712;BME280;5912;51.034;6.984;2023-03-17T08:09:32;56342.31;;;-142.13;35.31
11712;BME280;5912;51.034;6.984;2023-03-17T08:11:57;56358.34;;;-142.13;35.49
11712;BME280;5912;51.034;6.984;2023-03-17T08:14:23;56346.31;;;-142.13;35.79
11712;BME280;5912;51.034;6.984;2023-03-17T08:16:48;56350.31;;;-142.13;35.66
11712;BME280;5912;51.034;6.984;2023-03-17T08:19:14;56360.34;;;-142.13;35.82
11712;BME280;5912;51.034;6.984;2023-03-17T08:21:39;56358.34;;;-142.13;35.76
11712;BME280;5912;51.034;6.984;2023-03-17T08:24:04;56306.25;;;-142.13;35.11
11712;BME280;5912;51.034;6.984;2023-03-17T08:26:30;56298.22;;;-142.13;34.55
11712;BME280;5912;51.034;6.984;2023-03-17T08:28:56;56310.25;;;-142.13;34.29
11712;BME280;5912;51.034;6.984;2023-03-17T08:31:21;56312.25;;;-142.13;34.31
11712;BME280;5912;51.034;6.984;2023-03-17T08:33:49;56328.28;;;-142.13;34.30
11712;BME280;5912;51.034;6.984;2023-03-17T08:36:16;56282.22;;;-142.13;33.72
11712;BME280;5912;51.034;6.984;2023-03-17T08:38:44;56286.22;;;-142.13;33.53
11712;BME280;5912;51.034;6.984;2023-03-17T08:41:13;56280.22;;;-142.13;33.09
11712;BME280;5912;51.034;6.984;2023-03-17T08:43:40;56262.19;;;-142.13;32.80
11712;BME280;5912;51.034;6.984;2023-03-17T08:46:10;56250.16;;;-142.13;32.48
11712;BME280;5912;51.034;6.984;2023-03-17T08:48:37;56256.16;;;-142.13;32.53
11712;BME280;5912;51.034;6.984;2023-03-17T08:51:03;56262.19;;;-142.13;32.42
11712;BME280;5912;51.034;6.984;2023-03-17T08:53:29;56252.16;;;-142.13;32.09
11712;BME280;5912;51.034;6.984;2023-03-17T08:55:55;56274.19;;;-142.13;31.97
11712;BME280;5912;51.034;6.984;2023-03-17T08:58:23;56270.19;;;-142.13;32.29
11712;BME280;5912;51.034;6.984;2023-03-17T09:00:49;56284.22;;;-142.13;32.23
11712;BME280;5912;51.034;6.984;2023-03-17T09:03:15;56258.16;;;-142.13;32.55
11712;BME280;5912;51.034;6.984;2023-03-17T09:05:41;56268.19;;;-142.13;32.68
11712;BME280;5912;51.034;6.984;2023-03-17T09:08:08;56266.19;;;-142.13;32.94
11712;BME280;5912;51.034;6.984;2023-03-17T09:10:34;56248.16;;;-142.13;33.23
11712;BME280;5912;51.034;6.984;2023-03-17T09:13:00;56274.19;;;-142.13;33.38
11712;BME280;5912;51.034;6.984;2023-03-17T09:15:31;56320.28;;;-142.13;33.21
11712;BME280;5912;51.034;6.984;2023-03-17T09:17:57;56292.22;;;-142.13;33.19
11712;BME280;5912;51.034;6.984;2023-03-17T09:20:23;56292.22;;;-142.13;33.29
11712;BME280;5912;51.034;6.984;2023-03-17T09:22:48;56300.25;;;-142.13;33.36
11712;BME280;5912;51.034;6.984;2023-03-17T09:25:14;56272.19;;;-142.13;33.04
11712;BME280;5912;51.034;6.984;2023-03-17T09:27:40;56294.22;;;-142.13;33.27
11712;BME280;5912;51.034;6.984;2023-03-17T09:30:06;56274.19;;;-142.13;33.08
11712;BME280;5912;51.034;6.984;2023-03-17T09:32:34;56278.19;;;-142.13;33.04
11712;BME280;5912;51.034;6.984;2023-03-17T09:35:00;56280.22;;;-142.13;32.74
11712;BME280;5912;51.034;6.984;2023-03-17T09:37:25;56260.19;;;-142.13;32.56
11712;BME280;5912;51.034;6.984;2023-03-17T09:39:51;56272.19;;;-142.13;32.53
11712;BME280;5912;51.034;6.984;2023-03-17T09:42:32;56246.16;;;-142.13;32.42
11712;BME280;5912;51.034;6.984;2023-03-17T09:45:54;56234.13;;;-142.13;32.38
11712;BME280;5912;51.034;6.984;2023-03-17T09:48:30;56248.16;;;-142.13;32.47
11712;BME280;5912;51.034;6.984;2023-03-17T09:53:33;56244.16;;;-142.13;31.97
11712;BME280;5912;51.034;6.984;2023-03-17T09:56:14;56234.13;;;-142.13;32.34
11712;BME280;5912;51.034;6.984;2023-03-17T09:58:44;56236.13;;;-142.13;31.90
11712;BME280;5912;51.034;6.984;2023-03-17T10:01:11;56224.13;;;-142.13;31.15
11712;BME280;5912;51.034;6.984;2023-03-17T10:03:37;56186.06;;;-142.13;31.01
11712;BME280;5912;51.034;6.984;2023-03-17T10:06:33;56196.06;;;-142.13;31.08
11712;BME280;5912;51.034;6.984;2023-03-17T10:09:09;56184.06;;;-142.13;30.87
11712;BME280;5912;51.034;6.984;2023-03-17T10:11:40;56176.03;;;-142.13;30.66
11712;BME280;5912;51.034;6.984;2023-03-17T10:17:19;56156.00;;;-142.13;30.06
11712;BME280;5912;51.034;6.984;2023-03-17T10:22:21;56168.03;;;-142.13;29.92
11712;BME280;5912;51.034;6.984;2023-03-17T10:24:52;56176.03;;;-142.13;30.12
11712;BME280;5912;51.034;6.984;2023-03-17T10:27:19;56172.03;;;-142.13;29.86
11712;BME280;5912;51.034;6.984;2023-03-17T10:29:44;56164.03;;;-142.13;30.20
11712;BME280;5912;51.034;6.984;2023-03-17T10:32:11;56184.06;;;-142.13;30.15
11712;BME280;5912;51.034;6.984;2023-03-17T10:34:37;56168.03;;;-142.13;30.07
11712;BME280;5912;51.034;6.984;2023-03-17T10:37:06;56172.03;;;-142.13;29.97
11712;BME280;5912;51.034;6.984;2023-03-17T10:39:42;56164.03;;;-142.13;29.63
11712;BME280;5912;51.034;6.984;2023-03-17T10:42:11;56168.03;;;-142.13;29.46
11712;BME280;5912;51.034;6.984;2023-03-17T10:44:51;56448.47;;;-142.13;29.58
11712;BME280;5912;51.034;6.984;2023-03-17T10:47:38;56142.00;;;-142.13;29.63
11712;BME280;5912;51.034;6.984;2023-03-17T10:50:24;56160.03;;;-142.13;29.76
11712;BME280;5912;51.034;6.984;2023-03-17T10:52:57;56142.00;;;-142.13;29.50
11712;BME280;5912;51.034;6.984;2023-03-17T10:55:27;56131.97;;;-142.13;29.29
11712;BME280;5912;51.034;6.984;2023-03-17T10:58:03;56107.94;;;-142.13;28.65
11712;BME280;5912;51.034;6.984;2023-03-17T11:00:32;56135.97;;;-142.13;29.23
11712;BME280;5912;51.034;6.984;2023-03-17T11:03:03;56079.91;;;-142.13;28.51
11712;BME280;5912;51.034;6.984;2023-03-17T11:05:33;56083.91;;;-142.13;27.70
11712;BME280;5912;51.034;6.984;2023-03-17T11:08:14;56081.91;;;-142.13;27.14
11712;BME280;5912;51.034;6.984;2023-03-17T11:10:41;56019.81;;;-142.13;27.09
11712;BME280;5912;51.034;6.984;2023-03-17T11:13:07;56013.78;;;-142.13;26.92
11712;BME280;5912;51.034;6.984;2023-03-17T11:15:39;56035.81;;;-142.13;26.72
11712;BME280;5912;51.034;6.984;2023-03-17T11:21:15;56055.84;;;-142.13;27.23
11712;BME280;5912;51.034;6.984;2023-03-17T11:24:08;56055.84;;;-142.13;27.44
11712;BME280;5912;51.034;6.984;2023-03-17T11:26:41;56027.81;;;-142.13;27.46
11712;BME280;5912;51.034;6.984;2023-03-17T11:32:03;56031.81;;;-142.13;26.62
11712;BME280;5912;51.034;6.984;2023-03-17T11:34:44;56065.88;;;-142.13;26.70
11712;BME280;5912;51.034;6.984;2023-03-17T11:39:54;56039.84;;;-142.13;26.97
11712;BME280;5912;51.034;6.984;2023-03-17T11:42:26;56033.81;;;-142.13;26.83
11712;BME280;5912;51.034;6.984;2023-03-17T11:48:13;55983.75;;;-142.13;26.88
11712;BME280;5912;51.034;6.984;2023-03-17T11:51:20;55997.78;;;-142.13;25.93
11712;BME280;5912;51.034;6.984;2023-03-17T11:54:02;56011.78;;;-142.13;26.44
11712;BME280;5912;51.034;6.984;2023-03-17T11:56:52;56272.19;;;-142.13;25.75
11712;BME280;5912;51.034;6.984;2023-03-17T11:59:38;55995.78;;;-142.13;26.03
11712;BME280;5912;51.034;6.984;2023-03-17T12:02:23;56041.84;;;-142.13;25.96
11712;BME280;5912;51.034;6.984;2023-03-17T12:05:00;56027.81;;;-142.13;26.13
11712;BME280;5912;51.034;6.984;2023-03-17T12:07:42;56015.81;;;-142.13;26.43
11712;BME280;5912;51.034;6.984;2023-03-17T12:10:23;56055.84;;;-142.13;26.82
11712;BME280;5912;51.034;6.984;2023-03-17T12:15:49;56061.88;;;-142.13;27.46
11712;BME280;5912;51.034;6.984;2023-03-17T12:18:30;56081.91;;;-142.13;27.90
11712;BME280;5912;51.034;6.984;2023-03-17T12:20:59;56091.91;;;-142.13;28.07
11712;BME280;5912;51.034;6.984;2023-03-17T12:23:41;56077.91;;;-142.13;28.12
11712;BME280;5912;51.034;6.984;2023-03-17T12:26:13;56077.91;;;-142.13;28.20
11712;BME280;5912;51.034;6.984;2023-03-17T12:31:18;56081.91;;;-142.13;28.24
11712;BME280;5912;51.034;6.984;2023-03-17T12:36:25;56089.91;;;-142.13;28.12
11712;BME280;5912;51.034;6.984;2023-03-17T12:38:55;56144.00;;;-142.13;28.39
11712;BME280;5912;51.034;6.984;2023-03-17T12:55:45;56097.94;;;-142.13;28.78
11712;BME280;5912;51.034;6.984;2023-03-17T12:58:33;56075.88;;;-142.13;28.75
11712;BME280;5912;51.034;6.984;2023-03-17T13:03:41;56097.94;;;-142.13;28.61
11712;BME280;5912;51.034;6.984;2023-03-17T13:06:15;56140.00;;;-142.13;28.95
11712;BME280;5912;51.034;6.984;2023-03-17T13:08:43;56087.91;;;-142.13;29.12
11712;BME280;5912;51.034;6.984;2023-03-17T13:14:58;56109.94;;;-142.13;28.86
11712;BME280;5912;51.034;6.984;2023-03-17T13:22:52;56059.88;;;-142.13;28.54
11712;BME280;5912;51.034;6.984;2023-03-17T13:25:33;56075.88;;;-142.13;28.54
11712;BME280;5912;51.034;6.984;2023-03-17T13:39:00;56083.91;;;-142.13;28.61
11712;BME280;5912;51.034;6.984;2023-03-17T13:45:08;56069.88;;;-142.13;28.79
11712;BME280;5912;51.034;6.984;2023-03-17T13:47:41;56075.88;;;-142.13;28.34
11712;BME280;5912;51.034;6.984;2023-03-17T13:50:08;56061.88;;;-142.13;28.39
11712;BME280;5912;51.034;6.984;2023-03-17T13:53:00;56055.84;;;-142.13;28.44
11712;BME280;5912;51.034;6.984;2023-03-17T13:56:03;56079.91;;;-142.13;28.19
11712;BME280;5912;51.034;6.984;2023-03-17T13:58:33;56057.88;;;-142.13;28.32
11712;BME280;5912;51.034;6.984;2023-03-17T14:01:02;56083.91;;;-142.13;29.15
11712;BME280;5912;51.034;6.984;2023-03-17T14:03:40;56097.94;;;-142.13;28.90
11712;BME280;5912;51.034;6.984;2023-03-17T14:06:07;56097.94;;;-142.13;28.78